Abilene, TX (79601)

3:24 PM CDT on August 28, 2015 (GMT -0500)
Hillcrest | | Change Station
CLOSE
Current Station
Personal Weather Station
Location: Abilene, TX
Elevation: 1686 ft
Nearby Weather Stations

Elev 1686 ft 32.48 °N, 99.71 °W | Updated 13 minutes ago

Partly Cloudy
Partly Cloudy
98.2 °F
Feels Like 97 °F
N
4.2
Wind Variable Wind from SW

Today
High -- | Low -- °F
--% Chance of Precip.
Yesterday
High -- | Low -- °F
Precip. -- in
7:11 AM 8:08 PM
Waxing Gibbous, 99% visible
Pressure 29.88 in
Visibility 10.0 miles
Clouds Clear
Heat Index 97 °F
Dew Point 55 °F
Humidity 24%
Rainfall 0.00 in
Snow Depth Not available.
UV 10 out of 12
Pollen 8.20 out of 12
Air Quality Not available.
Flu Activity Not available.
METAR KABI 281952Z 18010KT 10SM CLR 36/12 A2998 RMK AO2 SLP119 T03610117
Pressure 29.88 in
Visibility 10.0 miles
Clouds Clear
Heat Index 97 °F
Dew Point 55 °F
Humidity 24%
Rainfall 0.00 in
Snow Depth Not available.
UV 10 out of 12
Pollen 8.20 out of 12
Air Quality Not available.
Flu Activity Not available.
METAR KABI 281952Z 18010KT 10SM CLR 36/12 A2998 RMK AO2 SLP119 T03610117

10-Day Weather Forecast

×

Almanac

Astronomy

Aug. 28, 2015 Rise Set
Actual Time
Civil Twilight
Nautical Twilight
Astronomical Twilight
Moon
Length of Visible Light
Length of Day
Tomorrow will be .
, % of the Moon is Illuminated

Today's Extremes

State Highs State Lows

Community

WunderPhotos

Upload Photos

1,850,469 photos uploaded!

WunderBlogs® & News

Nearby

Air Quality

  Air Quality AQ Index Pollutant
Not available.

Snow Depth

Station Depth Elevation

Earthquake Activity

City Distance Mag. Time & Date
Minimum magnitude displayed is 2.5.

Coastal Water Temperatures

Place Temperature

Stations

Nearby Weather Stations

Station Location Temp. Windchill Dew Point Humidity Wind Precip. Elev Updated Type